Time;durP1;ratioP1;P1;durP2;ratioP2;P2;SDS_P1;SDS_P2;PMS_P1;PMS_P2;Temp;Humidity;BMP_temperature;BMP_pressure;BME280_temperature;BME280_humidity;BME280_pressure;Samples;Min_cycle;Max_cycle;Signal;HPM_P1;HPM_P2
2022/01/05 00:00:06;;;;;;;0.85;0.75;;;;;;;;;;5036183;28;20025;-89
2022/01/05 00:02:32;;;;;;;1.02;0.90;;;;;;;;;;5057511;28;20084;-88
2022/01/05 00:04:57;;;;;;;1.85;1.10;;;;;;;;;;5057514;28;20383;-88
2022/01/05 00:07:22;;;;;;;1.98;0.88;;;;;;;;;;5039027;28;20078;-88
2022/01/05 00:09:48;;;;;;;0.80;0.80;;;;;;;;;;5021799;28;20044;-88
2022/01/05 00:12:14;;;;;;;1.52;0.88;;;;;;;;;;5015329;28;20086;-89
2022/01/05 00:14:40;;;;;;;0.95;0.90;;;;;;;;;;5020064;28;20025;-89
2022/01/05 00:17:05;;;;;;;0.77;0.77;;;;;;;;;;5039082;28;20460;-87
2022/01/05 00:19:32;;;;;;;0.88;0.88;;;;;;;;;;5022896;28;20033;-89
2022/01/05 00:21:57;;;;;;;2.53;1.02;;;;;;;;;;5036401;28;20148;-88
2022/01/05 00:24:23;;;;;;;0.93;0.82;;;;;;;;;;5009104;28;20065;-88
2022/01/05 00:26:48;;;;;;;1.30;1.17;;;;;;;;;;5024539;28;20368;-87
2022/01/05 00:29:13;;;;;;;1.30;1.20;;;;;;;;;;5044861;28;20072;-87
2022/01/05 00:31:39;;;;;;;1.08;1.05;;;;;;;;;;5029936;28;20044;-88
2022/01/05 00:34:04;;;;;;;0.75;0.75;;;;;;;;;;5047067;28;20026;-88
2022/01/05 00:36:32;;;;;;;0.90;0.90;;;;;;;;;;5036629;28;20059;-88
2022/01/05 00:38:58;;;;;;;0.80;0.80;;;;;;;;;;5017112;28;20487;-86
2022/01/05 00:41:23;;;;;;;0.80;0.80;;;;;;;;;;5031439;28;20108;-87
2022/01/05 00:43:48;;;;;;;0.57;0.57;;;;;;;;;;5024835;28;20022;-87
2022/01/05 00:46:14;;;;;;;0.70;0.70;;;;;;;;;;5015231;28;20029;-86
2022/01/05 00:48:40;;;;;;;1.30;1.20;;;;;;;;;;5012775;28;20041;-86
2022/01/05 00:51:09;;;;;;;0.70;0.70;;;;;;;;;;5025130;28;20095;-87
2022/01/05 00:53:36;;;;;;;0.50;0.50;;;;;;;;;;5028963;28;20051;-87
2022/01/05 00:56:02;;;;;;;3.50;0.70;;;;;;;;;;5012524;28;20118;-87
2022/01/05 00:58:27;;;;;;;0.70;0.70;;;;;;;;;;5020362;28;20032;-88
2022/01/05 01:00:53;;;;;;;0.50;0.50;;;;;;;;;;5007577;28;20392;-88
2022/01/05 01:03:19;;;;;;;0.60;0.60;;;;;;;;;;5024588;28;20472;-86
2022/01/05 01:05:44;;;;;;;0.70;0.70;;;;;;;;;;5010238;28;20025;-85
2022/01/05 01:08:10;;;;;;;0.70;0.70;;;;;;;;;;5026877;28;20022;-87
2022/01/05 01:10:36;;;;;;;0.50;0.50;;;;;;;;;;5008578;28;20516;-87
2022/01/05 01:13:01;;;;;;;0.68;0.68;;;;;;;;;;5030165;28;20111;-86
2022/01/05 01:15:27;;;;;;;0.70;0.70;;;;;;;;;;5016418;23;20088;-87
2022/01/05 01:17:52;;;;;;;0.40;0.40;;;;;;;;;;4999402;28;20080;-85
2022/01/05 01:20:20;;;;;;;0.40;0.40;;;;;;;;;;5024890;28;20473;-85
2022/01/05 01:22:45;;;;;;;0.98;0.60;;;;;;;;;;5022852;28;20040;-86
2022/01/05 01:25:11;;;;;;;0.40;0.40;;;;;;;;;;5018777;28;20018;-87
2022/01/05 01:27:37;;;;;;;0.75;0.70;;;;;;;;;;5020531;28;20040;-86
2022/01/05 01:30:07;;;;;;;0.60;0.60;;;;;;;;;;5020308;28;20032;-86
2022/01/05 01:32:37;;;;;;;0.50;0.50;;;;;;;;;;5026114;28;20033;-86
2022/01/05 01:35:04;;;;;;;0.85;0.43;;;;;;;;;;5023908;28;20032;-84
2022/01/05 01:37:30;;;;;;;0.40;0.40;;;;;;;;;;5000014;28;20021;-85
2022/01/05 01:39:55;;;;;;;0.50;0.50;;;;;;;;;;4998853;28;20022;-86
2022/01/05 01:42:21;;;;;;;0.50;0.50;;;;;;;;;;5030862;28;20108;-86
2022/01/05 01:44:47;;;;;;;0.75;0.75;;;;;;;;;;5015692;28;20072;-84
2022/01/05 01:47:12;;;;;;;0.40;0.40;;;;;;;;;;5000996;28;20040;-86
2022/01/05 01:49:38;;;;;;;0.63;0.63;;;;;;;;;;4998142;28;20574;-87
2022/01/05 01:52:04;;;;;;;0.85;0.70;;;;;;;;;;5004688;28;20423;-86
2022/01/05 01:54:30;;;;;;;1.88;0.73;;;;;;;;;;5019553;28;20052;-87
2022/01/05 01:56:55;;;;;;;0.98;0.68;;;;;;;;;;5005800;28;20061;-87
2022/01/05 01:59:21;;;;;;;0.73;0.60;;;;;;;;;;5026111;28;20014;-86
2022/01/05 02:01:47;;;;;;;0.40;0.40;;;;;;;;;;5026487;28;20029;-85
2022/01/05 02:04:12;;;;;;;0.68;0.43;;;;;;;;;;5015433;28;20026;-85
2022/01/05 02:06:38;;;;;;;0.40;0.40;;;;;;;;;;5031278;28;20060;-86
2022/01/05 02:09:04;;;;;;;0.60;0.60;;;;;;;;;;5025868;28;20025;-86
2022/01/05 02:11:31;;;;;;;0.50;0.50;;;;;;;;;;5028091;28;20026;-86
2022/01/05 02:13:57;;;;;;;0.30;0.30;;;;;;;;;;5024613;28;20026;-88
2022/01/05 02:16:30;;;;;;;0.40;0.40;;;;;;;;;;5025708;28;20032;-86
2022/01/05 02:18:58;;;;;;;1.00;0.75;;;;;;;;;;5021814;28;20104;-88
2022/01/05 02:21:25;;;;;;;0.50;0.50;;;;;;;;;;5028976;28;20483;-87
2022/01/05 02:23:51;;;;;;;2.28;0.80;;;;;;;;;;5020716;28;20420;-86
2022/01/05 02:26:17;;;;;;;0.80;0.80;;;;;;;;;;5004917;28;20481;-85
2022/01/05 02:28:43;;;;;;;1.10;1.00;;;;;;;;;;5002413;28;20026;-86
2022/01/05 02:31:09;;;;;;;0.68;0.68;;;;;;;;;;5024837;28;20041;-86
2022/01/05 02:33:35;;;;;;;0.90;0.90;;;;;;;;;;5025875;28;20040;-86
2022/01/05 02:36:00;;;;;;;0.63;0.63;;;;;;;;;;5000846;28;20025;-85
2022/01/05 02:38:26;;;;;;;0.50;0.50;;;;;;;;;;5022542;28;20013;-87
2022/01/05 02:40:52;;;;;;;0.50;0.50;;;;;;;;;;5023525;28;20029;-87
2022/01/05 02:43:18;;;;;;;1.63;0.77;;;;;;;;;;5019600;28;20086;-85
2022/01/05 02:45:44;;;;;;;0.60;0.60;;;;;;;;;;5006751;28;20032;-87
2022/01/05 02:48:09;;;;;;;0.75;0.65;;;;;;;;;;5037921;28;20021;-85
2022/01/05 02:50:35;;;;;;;1.80;0.70;;;;;;;;;;5006526;28;20483;-86
2022/01/05 02:53:00;;;;;;;0.50;0.50;;;;;;;;;;5030757;28;20029;-85
2022/01/05 02:55:26;;;;;;;0.57;0.57;;;;;;;;;;5028364;28;20470;-87
2022/01/05 02:57:51;;;;;;;0.75;0.75;;;;;;;;;;5036328;28;20024;-87
2022/01/05 03:00:17;;;;;;;0.60;0.60;;;;;;;;;;5034617;28;20029;-86
2022/01/05 03:02:43;;;;;;;0.73;0.70;;;;;;;;;;5012719;28;20021;-87
2022/01/05 03:05:10;;;;;;;0.80;0.80;;;;;;;;;;5018313;28;20025;-86
2022/01/05 03:07:39;;;;;;;0.60;0.60;;;;;;;;;;5018609;28;20044;-86
2022/01/05 03:10:10;;;;;;;1.63;0.88;;;;;;;;;;5036499;28;20033;-87
2022/01/05 03:12:40;;;;;;;0.70;0.70;;;;;;;;;;5036140;28;20029;-88
2022/01/05 03:15:06;;;;;;;0.65;0.65;;;;;;;;;;5020345;28;20022;-89
2022/01/05 03:17:32;;;;;;;0.63;0.63;;;;;;;;;;5031119;28;20040;-86
2022/01/05 03:19:57;;;;;;;0.50;0.50;;;;;;;;;;5015961;28;20100;-87
2022/01/05 03:22:22;;;;;;;0.60;0.60;;;;;;;;;;5037028;28;20080;-87
2022/01/05 03:24:48;;;;;;;0.70;0.70;;;;;;;;;;5037696;28;20033;-88
2022/01/05 03:27:13;;;;;;;2.72;0.70;;;;;;;;;;5029749;28;20029;-87
2022/01/05 03:29:39;;;;;;;0.80;0.80;;;;;;;;;;5034523;28;20025;-86
2022/01/05 03:32:04;;;;;;;0.80;0.80;;;;;;;;;;5022921;28;20030;-87
2022/01/05 03:34:31;;;;;;;0.57;0.57;;;;;;;;;;5022494;28;20026;-87
2022/01/05 03:36:57;;;;;;;0.73;0.73;;;;;;;;;;5031506;28;20029;-86
2022/01/05 03:39:22;;;;;;;0.60;0.60;;;;;;;;;;5020321;28;20018;-86
2022/01/05 03:41:48;;;;;;;3.03;0.70;;;;;;;;;;5027947;28;20032;-88
2022/01/05 03:44:13;;;;;;;0.80;0.70;;;;;;;;;;5036096;28;20025;-86
2022/01/05 03:46:38;;;;;;;0.82;0.80;;;;;;;;;;5035053;28;20605;-87
2022/01/05 03:49:04;;;;;;;0.70;0.70;;;;;;;;;;5009176;28;20030;-89
2022/01/05 03:51:30;;;;;;;0.75;0.75;;;;;;;;;;5017152;28;20040;-88
2022/01/05 03:53:55;;;;;;;0.80;0.80;;;;;;;;;;5036155;28;20113;-88
2022/01/05 03:56:20;;;;;;;0.68;0.68;;;;;;;;;;5019614;28;20018;-87
2022/01/05 03:58:46;;;;;;;0.70;0.70;;;;;;;;;;5014592;28;20036;-87
2022/01/05 04:01:11;;;;;;;0.77;0.77;;;;;;;;;;5006461;28;20080;-89
2022/01/05 04:03:37;;;;;;;0.55;0.55;;;;;;;;;;5016715;28;20057;-89
2022/01/05 04:06:04;;;;;;;1.05;0.52;;;;;;;;;;4998869;28;20068;-88
2022/01/05 04:08:30;;;;;;;0.55;0.55;;;;;;;;;;5016747;28;20026;-87
2022/01/05 04:10:55;;;;;;;0.55;0.55;;;;;;;;;;4999797;28;20598;-87
2022/01/05 04:13:21;;;;;;;0.60;0.60;;;;;;;;;;4999382;28;20022;-87
2022/01/05 04:15:46;;;;;;;0.60;0.60;;;;;;;;;;4998547;28;20030;-87
2022/01/05 04:18:11;;;;;;;0.47;0.47;;;;;;;;;;5009961;28;20408;-87
2022/01/05 04:20:37;;;;;;;0.50;0.50;;;;;;;;;;5015598;28;20029;-87
2022/01/05 04:23:02;;;;;;;0.90;0.60;;;;;;;;;;5007882;28;20037;-88
2022/01/05 04:25:28;;;;;;;1.90;0.55;;;;;;;;;;5019958;28;20080;-87
2022/01/05 04:27:53;;;;;;;0.50;0.50;;;;;;;;;;5008401;28;20021;-87
2022/01/05 04:30:19;;;;;;;0.50;0.50;;;;;;;;;;5009821;28;20045;-87
2022/01/05 04:32:44;;;;;;;0.50;0.50;;;;;;;;;;5017146;28;20025;-87
2022/01/05 04:35:13;;;;;;;1.42;0.50;;;;;;;;;;5017282;28;20021;-87
2022/01/05 04:37:39;;;;;;;1.15;0.80;;;;;;;;;;5035058;28;20034;-87
2022/01/05 04:40:05;;;;;;;3.38;0.68;;;;;;;;;;5034834;28;20040;-88
2022/01/05 04:42:30;;;;;;;0.60;0.60;;;;;;;;;;5036504;28;20056;-88
2022/01/05 04:44:56;;;;;;;0.52;0.52;;;;;;;;;;5026504;28;20045;-88
2022/01/05 04:47:22;;;;;;;0.77;0.77;;;;;;;;;;5019398;28;20022;-88
2022/01/05 04:49:47;;;;;;;0.60;0.60;;;;;;;;;;5017737;28;20079;-87
2022/01/05 04:52:13;;;;;;;0.73;0.60;;;;;;;;;;5032609;28;20020;-88
2022/01/05 04:54:38;;;;;;;0.75;0.70;;;;;;;;;;5016898;28;20419;-86
2022/01/05 04:57:05;;;;;;;0.70;0.70;;;;;;;;;;5006482;28;20026;-87
2022/01/05 04:59:31;;;;;;;0.95;0.95;;;;;;;;;;5033866;28;20025;-86
2022/01/05 05:01:56;;;;;;;2.38;0.80;;;;;;;;;;4997167;28;20025;-87
2022/01/05 05:04:22;;;;;;;2.10;0.88;;;;;;;;;;4997419;28;20111;-87
2022/01/05 05:06:49;;;;;;;1.10;1.10;;;;;;;;;;4998662;28;20514;-89
2022/01/05 05:09:14;;;;;;;1.33;1.00;;;;;;;;;;5020162;28;20017;-87
2022/01/05 05:11:39;;;;;;;1.05;0.90;;;;;;;;;;5035655;28;20044;-88
2022/01/05 05:14:05;;;;;;;0.60;0.60;;;;;;;;;;5025493;28;20080;-87
2022/01/05 05:16:30;;;;;;;0.82;0.70;;;;;;;;;;5028590;28;20025;-86
2022/01/05 05:18:55;;;;;;;3.40;0.73;;;;;;;;;;5024878;28;20100;-87
2022/01/05 05:21:21;;;;;;;0.93;0.93;;;;;;;;;;5017678;28;20388;-87
2022/01/05 05:23:46;;;;;;;0.73;0.73;;;;;;;;;;5017540;28;20035;-88
2022/01/05 05:26:12;;;;;;;1.13;0.85;;;;;;;;;;5025720;28;20104;-89
2022/01/05 05:28:37;;;;;;;0.80;0.80;;;;;;;;;;5010884;28;20050;-88
2022/01/05 05:31:02;;;;;;;1.42;1.33;;;;;;;;;;4998083;28;20041;-86
2022/01/05 05:33:28;;;;;;;1.42;1.05;;;;;;;;;;5014837;28;20033;-89
2022/01/05 05:35:53;;;;;;;1.27;1.27;;;;;;;;;;5018359;28;20024;-89
2022/01/05 05:38:19;;;;;;;1.48;1.38;;;;;;;;;;5008280;28;20414;-89
2022/01/05 05:40:45;;;;;;;2.47;1.90;;;;;;;;;;5008458;28;20053;-89
2022/01/05 05:43:11;;;;;;;1.90;1.80;;;;;;;;;;5032763;28;20025;-89
2022/01/05 05:45:37;;;;;;;2.60;1.92;;;;;;;;;;5008295;28;20079;-89
2022/01/05 05:48:02;;;;;;;3.30;1.58;;;;;;;;;;4998115;28;20104;-88
2022/01/05 05:50:29;;;;;;;2.67;1.90;;;;;;;;;;5016012;28;20052;-89
2022/01/05 05:52:55;;;;;;;3.25;2.30;;;;;;;;;;5016076;28;20060;-88
2022/01/05 05:55:20;;;;;;;2.45;2.20;;;;;;;;;;5011497;28;20021;-89
2022/01/05 05:57:46;;;;;;;3.10;2.20;;;;;;;;;;5007851;28;20028;-87
2022/01/05 06:00:12;;;;;;;4.75;2.60;;;;;;;;;;5026146;28;20053;-88
2022/01/05 06:02:37;;;;;;;6.25;2.53;;;;;;;;;;5017074;28;20050;-86
2022/01/05 06:05:03;;;;;;;4.82;2.33;;;;;;;;;;5035584;28;20383;-90
2022/01/05 06:07:29;;;;;;;2.75;2.22;;;;;;;;;;5019259;28;20128;-88
2022/01/05 06:09:54;;;;;;;3.42;2.30;;;;;;;;;;5036426;28;20109;-87
2022/01/05 06:12:20;;;;;;;3.08;2.05;;;;;;;;;;5014193;28;20022;-88
2022/01/05 06:14:45;;;;;;;2.15;1.88;;;;;;;;;;5018600;28;20090;-89
2022/01/05 06:17:10;;;;;;;4.78;2.60;;;;;;;;;;5029285;28;20018;-87
2022/01/05 06:19:36;;;;;;;2.92;1.98;;;;;;;;;;5035566;28;20475;-87
2022/01/05 06:22:01;;;;;;;2.38;1.67;;;;;;;;;;5011466;28;20833;-87
2022/01/05 06:24:27;;;;;;;3.75;2.55;;;;;;;;;;5005696;28;20049;-87
2022/01/05 06:26:52;;;;;;;2.30;1.77;;;;;;;;;;5030063;28;20037;-87
2022/01/05 06:29:19;;;;;;;2.45;2.10;;;;;;;;;;5007934;28;20372;-88
2022/01/05 06:31:44;;;;;;;4.00;1.73;;;;;;;;;;5007560;28;20026;-87
2022/01/05 06:34:10;;;;;;;1.65;1.55;;;;;;;;;;4996276;28;20028;-87
2022/01/05 06:36:35;;;;;;;2.75;1.52;;;;;;;;;;5014143;28;20036;-86
2022/01/05 06:39:02;;;;;;;1.40;1.23;;;;;;;;;;4996121;28;20049;-86
2022/01/05 06:41:27;;;;;;;2.97;1.70;;;;;;;;;;5013972;28;20044;-86
2022/01/05 06:43:52;;;;;;;1.67;1.52;;;;;;;;;;4999494;28;20555;-86
2022/01/05 06:46:18;;;;;;;3.05;1.60;;;;;;;;;;5002862;28;20017;-86
2022/01/05 06:48:43;;;;;;;2.72;1.98;;;;;;;;;;5018896;28;20116;-86
2022/01/05 06:51:09;;;;;;;1.70;1.60;;;;;;;;;;5033348;28;20395;-87
2022/01/05 06:53:34;;;;;;;1.88;1.60;;;;;;;;;;5002192;28;20162;-88
2022/01/05 06:56:00;;;;;;;1.27;1.17;;;;;;;;;;5002549;28;21270;-88
2022/01/05 06:58:25;;;;;;;1.10;1.02;;;;;;;;;;5009090;28;20024;-88
2022/01/05 07:00:51;;;;;;;2.03;1.20;;;;;;;;;;5009946;28;20029;-88
2022/01/05 07:03:16;;;;;;;1.52;1.42;;;;;;;;;;5036039;28;20024;-88
2022/01/05 07:05:41;;;;;;;1.60;1.50;;;;;;;;;;5028456;28;20026;-88
2022/01/05 07:08:07;;;;;;;1.65;1.45;;;;;;;;;;5036503;28;20430;-89
2022/01/05 07:10:33;;;;;;;2.03;1.30;;;;;;;;;;5012058;28;20030;-88
2022/01/05 07:12:58;;;;;;;1.83;1.33;;;;;;;;;;5008053;28;20029;-88
2022/01/05 07:15:25;;;;;;;2.30;1.50;;;;;;;;;;5004553;28;20073;-87
2022/01/05 07:17:51;;;;;;;2.35;1.35;;;;;;;;;;5016072;28;20471;-88
2022/01/05 07:20:17;;;;;;;1.70;1.50;;;;;;;;;;5016002;28;20024;-87
2022/01/05 07:22:43;;;;;;;1.73;1.63;;;;;;;;;;4999370;28;20026;-87
2022/01/05 07:25:09;;;;;;;1.52;1.42;;;;;;;;;;5005856;28;20478;-88
2022/01/05 07:27:35;;;;;;;1.60;1.50;;;;;;;;;;5035399;28;20030;-86
2022/01/05 07:30:01;;;;;;;3.55;1.80;;;;;;;;;;5018717;28;20057;-86
2022/01/05 07:32:28;;;;;;;4.05;1.83;;;;;;;;;;5017307;28;20525;-87
2022/01/05 07:34:54;;;;;;;1.65;1.13;;;;;;;;;;5017190;28;20025;-85
2022/01/05 07:37:19;;;;;;;2.05;1.77;;;;;;;;;;5042617;28;20036;-91
2022/01/05 07:39:45;;;;;;;1.85;1.75;;;;;;;;;;5027862;28;20068;-88
2022/01/05 07:42:10;;;;;;;2.83;2.28;;;;;;;;;;5019869;28;20033;-88
2022/01/05 07:44:36;;;;;;;1.92;1.80;;;;;;;;;;5019301;28;20048;-88
2022/01/05 07:47:01;;;;;;;9.80;2.25;;;;;;;;;;5005415;28;20026;-88
2022/01/05 07:49:27;;;;;;;5.13;2.35;;;;;;;;;;5019312;28;20431;-86
2022/01/05 07:51:53;;;;;;;5.38;1.92;;;;;;;;;;5014998;28;20061;-88
2022/01/05 07:54:18;;;;;;;2.08;1.42;;;;;;;;;;5014298;28;20018;-88
2022/01/05 07:56:43;;;;;;;1.45;1.40;;;;;;;;;;5011078;28;20029;-89
2022/01/05 07:59:09;;;;;;;3.28;1.70;;;;;;;;;;5009645;28;20112;-88
2022/01/05 08:01:34;;;;;;;6.25;1.67;;;;;;;;;;5036714;28;20411;-88
2022/01/05 08:04:00;;;;;;;4.07;1.67;;;;;;;;;;5018754;28;20050;-88
2022/01/05 08:06:25;;;;;;;3.85;1.83;;;;;;;;;;4999301;28;20029;-87
2022/01/05 08:08:51;;;;;;;4.05;1.95;;;;;;;;;;4999873;28;20044;-88
2022/01/05 08:11:17;;;;;;;4.30;1.67;;;;;;;;;;5022474;28;20449;-88
2022/01/05 08:13:42;;;;;;;3.92;2.08;;;;;;;;;;5036387;28;20621;-87
2022/01/05 08:16:08;;;;;;;4.47;2.28;;;;;;;;;;5014072;28;20030;-88
2022/01/05 08:18:34;;;;;;;5.35;2.67;;;;;;;;;;5006797;28;20026;-88
2022/01/05 08:20:59;;;;;;;4.88;1.95;;;;;;;;;;5015896;28;20030;-88
2022/01/05 08:23:25;;;;;;;2.80;1.77;;;;;;;;;;5016818;28;20129;-89
2022/01/05 08:25:51;;;;;;;3.03;2.20;;;;;;;;;;5025027;28;20479;-88
2022/01/05 08:28:17;;;;;;;3.15;1.38;;;;;;;;;;5024724;28;20018;-88
2022/01/05 08:30:46;;;;;;;4.13;1.77;;;;;;;;;;4998530;28;20028;-89
2022/01/05 08:33:14;;;;;;;3.92;1.75;;;;;;;;;;5015859;28;20018;-89
2022/01/05 08:35:40;;;;;;;3.85;2.10;;;;;;;;;;5018365;28;20568;-88
2022/01/05 08:38:06;;;;;;;4.30;2.10;;;;;;;;;;5043910;28;20460;-87
2022/01/05 08:40:34;;;;;;;2.10;1.90;;;;;;;;;;5017122;28;20521;-88
2022/01/05 08:42:59;;;;;;;7.25;2.20;;;;;;;;;;5016291;28;20026;-86
2022/01/05 08:45:26;;;;;;;2.78;2.33;;;;;;;;;;5008054;28;20021;-89
2022/01/05 08:47:53;;;;;;;7.40;1.48;;;;;;;;;;5027375;28;20044;-88
2022/01/05 08:50:24;;;;;;;5.65;2.72;;;;;;;;;;5018836;28;20486;-88
2022/01/05 08:52:51;;;;;;;2.47;1.65;;;;;;;;;;5027566;28;20536;-87
2022/01/05 08:55:19;;;;;;;2.25;1.77;;;;;;;;;;5028036;28;20070;-88
2022/01/05 08:57:46;;;;;;;2.40;1.70;;;;;;;;;;5031334;28;20025;-88
2022/01/05 09:00:12;;;;;;;2.90;1.92;;;;;;;;;;5032746;28;20025;-88
2022/01/05 09:02:38;;;;;;;1.95;1.77;;;;;;;;;;5033127;28;20017;-87
2022/01/05 09:05:05;;;;;;;3.95;1.60;;;;;;;;;;5007002;28;20439;-88
2022/01/05 09:07:30;;;;;;;8.55;1.60;;;;;;;;;;5012074;28;20021;-87
2022/01/05 09:09:56;;;;;;;1.00;0.82;;;;;;;;;;5016076;28;20041;-88
2022/01/05 09:12:21;;;;;;;1.02;1.02;;;;;;;;;;5035014;28;20040;-88
2022/01/05 09:14:47;;;;;;;12.20;1.85;;;;;;;;;;5034836;28;20056;-87
2022/01/05 09:17:12;;;;;;;1.52;1.42;;;;;;;;;;5026974;28;20025;-88
2022/01/05 09:19:38;;;;;;;6.80;1.65;;;;;;;;;;5020159;28;20074;-87
2022/01/05 09:22:04;;;;;;;7.15;2.17;;;;;;;;;;4998590;28;20056;-88
2022/01/05 09:24:30;;;;;;;4.40;1.58;;;;;;;;;;5013406;28;20483;-88
2022/01/05 09:26:57;;;;;;;3.95;1.98;;;;;;;;;;5025870;28;20041;-88
2022/01/05 09:29:23;;;;;;;2.50;1.13;;;;;;;;;;5022944;28;20033;-88
2022/01/05 09:31:50;;;;;;;2.50;1.38;;;;;;;;;;4996994;28;20044;-88
2022/01/05 09:34:16;;;;;;;3.05;1.73;;;;;;;;;;4995638;28;20030;-88
2022/01/05 09:36:47;;;;;;;6.10;2.08;;;;;;;;;;5003980;28;20025;-89
2022/01/05 09:41:56;;;;;;;4.68;1.70;;;;;;;;;;5035645;28;20056;-86
2022/01/05 09:44:26;;;;;;;4.90;1.40;;;;;;;;;;5020131;28;20483;-89
2022/01/05 09:47:10;;;;;;;2.45;1.75;;;;;;;;;;5016763;28;20022;-90
2022/01/05 09:49:47;;;;;;;6.95;2.38;;;;;;;;;;5008265;28;20036;-89
2022/01/05 09:52:13;;;;;;;2.95;1.63;;;;;;;;;;5024737;28;20029;-89
2022/01/05 09:54:43;;;;;;;6.50;2.20;;;;;;;;;;5013967;28;20453;-87
2022/01/05 09:57:10;;;;;;;3.95;2.10;;;;;;;;;;5017387;28;20706;-86
2022/01/05 09:59:36;;;;;;;4.97;1.73;;;;;;;;;;5015666;28;20022;-87
2022/01/05 10:02:03;;;;;;;4.03;1.63;;;;;;;;;;5016768;28;20101;-87
2022/01/05 10:04:29;;;;;;;4.47;2.10;;;;;;;;;;5000893;28;20033;-88
2022/01/05 10:06:55;;;;;;;3.47;3.00;;;;;;;;;;5017172;28;20048;-88
2022/01/05 10:09:20;;;;;;;6.95;2.33;;;;;;;;;;4996844;28;20026;-88
2022/01/05 10:11:46;;;;;;;2.78;1.75;;;;;;;;;;5001226;28;20045;-87
2022/01/05 10:14:15;;;;;;;5.10;1.88;;;;;;;;;;4995765;28;20403;-89
2022/01/05 10:16:41;;;;;;;5.95;1.65;;;;;;;;;;5015624;28;20065;-87
2022/01/05 10:19:08;;;;;;;4.07;1.90;;;;;;;;;;5011634;28;20391;-87
2022/01/05 10:21:39;;;;;;;9.52;1.83;;;;;;;;;;5038766;28;20041;-88
2022/01/05 10:24:05;;;;;;;9.38;2.00;;;;;;;;;;5039876;28;20022;-87
2022/01/05 10:26:39;;;;;;;4.88;1.95;;;;;;;;;;5012297;28;20041;-86
2022/01/05 10:29:20;;;;;;;3.78;1.33;;;;;;;;;;5037068;28;20356;-85
2022/01/05 10:31:52;;;;;;;2.33;1.50;;;;;;;;;;5037291;28;20036;-85
2022/01/05 10:34:21;;;;;;;7.25;1.88;;;;;;;;;;5034314;28;20033;-86
2022/01/05 10:36:53;;;;;;;6.88;1.70;;;;;;;;;;5024842;28;20483;-86
2022/01/05 10:39:27;;;;;;;5.13;1.45;;;;;;;;;;5015853;28;20014;-86
2022/01/05 10:41:52;;;;;;;1.55;1.40;;;;;;;;;;5005518;28;20057;-85
2022/01/05 10:44:24;;;;;;;7.30;1.98;;;;;;;;;;5020234;28;20034;-84
2022/01/05 10:46:49;;;;;;;10.23;1.95;;;;;;;;;;5010759;28;20067;-85
2022/01/05 10:49:22;;;;;;;3.63;1.35;;;;;;;;;;5013390;28;20021;-86
2022/01/05 10:51:47;;;;;;;4.97;3.03;;;;;;;;;;5041182;28;20510;-82
2022/01/05 10:54:18;;;;;;;2.65;1.83;;;;;;;;;;5019069;28;20032;-86
2022/01/05 10:56:44;;;;;;;3.35;1.25;;;;;;;;;;5020488;28;20034;-85
2022/01/05 10:59:11;;;;;;;5.05;1.42;;;;;;;;;;5020339;28;20041;-82
2022/01/05 11:01:38;;;;;;;5.53;1.60;;;;;;;;;;5030698;28;20025;-86
2022/01/05 11:04:23;;;;;;;4.72;1.40;;;;;;;;;;5016719;28;20481;-82
2022/01/05 11:07:03;;;;;;;12.02;3.05;;;;;;;;;;5021212;28;20076;-84
2022/01/05 11:09:31;;;;;;;10.40;1.73;;;;;;;;;;5042274;28;20041;-83
2022/01/05 11:11:58;;;;;;;7.85;2.10;;;;;;;;;;5001901;28;20168;-86
2022/01/05 11:14:36;;;;;;;6.65;3.13;;;;;;;;;;5019638;28;21190;-85
2022/01/05 11:17:05;;;;;;;5.32;1.50;;;;;;;;;;5024616;28;20036;-82
2022/01/05 11:19:40;;;;;;;5.15;1.70;;;;;;;;;;5032153;28;20034;-84
2022/01/05 11:22:16;;;;;;;6.38;1.75;;;;;;;;;;5033294;28;20072;-84
2022/01/05 11:24:52;;;;;;;5.05;1.83;;;;;;;;;;5029070;28;20033;-84
2022/01/05 11:27:22;;;;;;;9.07;2.38;;;;;;;;;;5027955;28;20040;-84
2022/01/05 11:29:48;;;;;;;3.65;1.85;;;;;;;;;;5019522;28;20028;-85
2022/01/05 11:32:17;;;;;;;2.92;1.17;;;;;;;;;;5018609;28;20108;-85
2022/01/05 11:34:42;;;;;;;4.38;1.58;;;;;;;;;;5018336;28;20025;-85
2022/01/05 11:37:09;;;;;;;1.95;1.38;;;;;;;;;;5019617;28;20033;-84
2022/01/05 11:40:29;;;;;;;3.80;1.60;;;;;;;;;;5019961;28;20042;-86
2022/01/05 11:43:36;;;;;;;4.50;2.80;;;;;;;;;;4978919;28;20416;-87
2022/01/05 11:46:14;;;;;;;4.45;1.55;;;;;;;;;;4994690;28;20040;-85
2022/01/05 11:48:40;;;;;;;4.43;1.98;;;;;;;;;;5026259;28;20088;-85
2022/01/05 11:51:06;;;;;;;6.00;1.90;;;;;;;;;;5004283;28;20041;-85
2022/01/05 11:53:44;;;;;;;8.07;1.77;;;;;;;;;;5023010;28;20037;-85
2022/01/05 11:56:18;;;;;;;7.50;1.55;;;;;;;;;;5036347;28;20033;-84
2022/01/05 11:59:04;;;;;;;7.30;1.95;;;;;;;;;;5021413;28;20034;-84
2022/01/05 12:01:32;;;;;;;4.90;1.05;;;;;;;;;;5029471;28;20049;-84
2022/01/05 12:03:57;;;;;;;8.93;2.22;;;;;;;;;;5021629;28;20034;-84
2022/01/05 12:06:31;;;;;;;2.85;1.27;;;;;;;;;;5032515;28;20029;-85
2022/01/05 12:08:58;;;;;;;2.70;1.38;;;;;;;;;;5039089;28;20021;-85
2022/01/05 12:11:42;;;;;;;15.63;2.50;;;;;;;;;;5024186;28;20044;-85
2022/01/05 12:14:07;;;;;;;7.25;1.90;;;;;;;;;;5018410;28;20037;-84
2022/01/05 12:17:01;;;;;;;7.45;1.88;;;;;;;;;;5007951;28;20399;-84
2022/01/05 12:19:45;;;;;;;1.45;1.23;;;;;;;;;;5019827;28;20041;-84
2022/01/05 12:22:33;;;;;;;6.65;2.03;;;;;;;;;;5011542;28;20029;-84
2022/01/05 12:25:05;;;;;;;13.00;1.65;;;;;;;;;;5023159;28;20026;-83
2022/01/05 12:27:34;;;;;;;9.85;2.45;;;;;;;;;;5022177;28;20423;-85
2022/01/05 12:30:03;;;;;;;5.78;1.92;;;;;;;;;;5033106;28;20013;-86
2022/01/05 12:32:31;;;;;;;5.82;2.00;;;;;;;;;;5031341;28;20052;-84
2022/01/05 12:35:17;;;;;;;4.15;1.73;;;;;;;;;;5007854;28;20563;-84
2022/01/05 12:37:46;;;;;;;2.53;0.88;;;;;;;;;;5020626;28;20017;-83
2022/01/05 12:40:32;;;;;;;7.40;2.33;;;;;;;;;;5011546;28;20084;-85
2022/01/05 12:43:10;;;;;;;9.57;1.52;;;;;;;;;;5019939;28;20029;-85
2022/01/05 12:45:55;;;;;;;3.88;1.45;;;;;;;;;;5018557;28;20029;-85
2022/01/05 12:48:36;;;;;;;3.17;1.02;;;;;;;;;;5021410;28;20029;-85
2022/01/05 12:51:23;;;;;;;6.03;1.90;;;;;;;;;;5016533;28;20033;-86
2022/01/05 12:54:09;;;;;;;5.75;1.75;;;;;;;;;;5000435;28;20029;-84
2022/01/05 12:57:09;;;;;;;7.05;2.08;;;;;;;;;;5014207;28;20028;-85
2022/01/05 12:59:49;;;;;;;3.17;1.60;;;;;;;;;;4997969;28;20109;-84
2022/01/05 13:02:28;;;;;;;5.28;1.50;;;;;;;;;;5017722;28;20029;-83
2022/01/05 13:05:06;;;;;;;7.03;2.10;;;;;;;;;;5002302;28;20046;-84
2022/01/05 13:07:53;;;;;;;4.30;1.40;;;;;;;;;;4999164;28;20028;-83
2022/01/05 13:10:28;;;;;;;9.35;2.25;;;;;;;;;;5005088;28;20034;-86
2022/01/05 13:12:57;;;;;;;10.55;1.65;;;;;;;;;;5009735;28;20034;-84
2022/01/05 13:15:25;;;;;;;6.30;1.77;;;;;;;;;;4976474;28;20081;-84
2022/01/05 13:17:59;;;;;;;7.20;1.52;;;;;;;;;;5032632;28;20041;-85
2022/01/05 13:20:31;;;;;;;5.88;1.60;;;;;;;;;;5015922;28;20038;-85
2022/01/05 13:22:59;;;;;;;7.22;1.80;;;;;;;;;;5018585;28;20060;-87
2022/01/05 13:25:30;;;;;;;6.80;1.73;;;;;;;;;;5014704;28;20041;-84
2022/01/05 13:28:10;;;;;;;6.10;1.42;;;;;;;;;;5005833;28;20033;-85
2022/01/05 13:34:49;;;;;;;3.13;1.40;;;;;;;;;;5033440;28;20083;-84
2022/01/05 13:41:11;;;;;;;1.58;1.23;;;;;;;;;;4995027;28;20041;-85
2022/01/05 13:51:10;;;;;;;5.75;1.60;;;;;;;;;;4934723;29;20059;-84
2022/01/05 13:54:27;;;;;;;4.18;1.33;;;;;;;;;;4954694;28;20054;-85
2022/01/05 13:57:33;;;;;;;1.25;0.85;;;;;;;;;;4970962;28;20113;-85
2022/01/05 14:00:33;;;;;;;4.50;1.65;;;;;;;;;;4942680;28;20023;-85
2022/01/05 14:03:02;;;;;;;5.65;1.60;;;;;;;;;;5004133;28;20033;-84
2022/01/05 14:05:45;;;;;;;4.80;1.95;;;;;;;;;;5014874;28;20073;-85
2022/01/05 14:08:10;;;;;;;6.25;1.60;;;;;;;;;;5015101;28;20022;-85
2022/01/05 14:10:37;;;;;;;7.45;1.80;;;;;;;;;;5027015;28;20054;-84
2022/01/05 14:13:06;;;;;;;3.58;1.92;;;;;;;;;;5014176;28;20056;-85
2022/01/05 14:15:33;;;;;;;11.48;2.17;;;;;;;;;;5014954;28;20045;-84
2022/01/05 14:18:12;;;;;;;4.60;2.10;;;;;;;;;;5020170;28;20033;-87
2022/01/05 14:20:49;;;;;;;5.10;1.65;;;;;;;;;;5021665;28;20026;-85
2022/01/05 14:23:17;;;;;;;4.38;2.08;;;;;;;;;;5007427;28;20025;-86
2022/01/05 14:25:51;;;;;;;3.90;1.63;;;;;;;;;;5034161;28;20021;-85
2022/01/05 14:28:16;;;;;;;6.22;1.60;;;;;;;;;;5020720;28;20020;-85
2022/01/05 14:31:01;;;;;;;2.15;1.10;;;;;;;;;;5017294;28;20025;-86
2022/01/05 14:33:31;;;;;;;1.73;1.05;;;;;;;;;;5003827;28;20037;-85
2022/01/05 14:35:58;;;;;;;1.63;1.10;;;;;;;;;;5000590;28;20125;-84
2022/01/05 14:38:24;;;;;;;4.43;1.33;;;;;;;;;;5013692;28;20104;-85
2022/01/05 14:40:49;;;;;;;4.55;1.67;;;;;;;;;;5036687;28;20071;-86
2022/01/05 14:43:15;;;;;;;4.45;1.95;;;;;;;;;;5018095;28;20432;-85
2022/01/05 14:45:43;;;;;;;3.33;1.50;;;;;;;;;;5035001;28;20029;-85
2022/01/05 14:48:09;;;;;;;4.80;1.33;;;;;;;;;;5032353;28;20085;-86
2022/01/05 14:50:37;;;;;;;10.52;1.40;;;;;;;;;;5025299;28;20042;-87
2022/01/05 14:53:04;;;;;;;4.28;1.35;;;;;;;;;;5024815;28;20005;-87
2022/01/05 14:55:30;;;;;;;4.97;1.20;;;;;;;;;;5048877;28;20017;-88
2022/01/05 14:58:28;;;;;;;4.25;1.52;;;;;;;;;;5057227;28;20064;-87
2022/01/05 15:14:37;;;;;;;7.90;1.58;;;;;;;;;;5060978;28;20077;-86
2022/01/05 15:17:02;;;;;;;2.10;0.80;;;;;;;;;;5034304;28;20025;-85
2022/01/05 15:19:28;;;;;;;7.05;1.50;;;;;;;;;;5050496;28;20026;-87
2022/01/05 15:21:53;;;;;;;3.65;1.20;;;;;;;;;;5001840;28;20533;-85